sensor_id;sensor_type;location;lat;lon;timestamp;P1;durP1;ratioP1;P2;durP2;ratioP2
32399;SDS011;45045;45.440;9.178;2023-07-24T00:01:57;18.10;;;12.07;;
32399;SDS011;45045;45.440;9.178;2023-07-24T00:04:23;16.23;;;10.93;;
32399;SDS011;45045;45.440;9.178;2023-07-24T00:06:49;14.52;;;10.15;;
32399;SDS011;45045;45.440;9.178;2023-07-24T00:09:14;17.40;;;10.70;;
32399;SDS011;45045;45.440;9.178;2023-07-24T00:11:40;17.23;;;10.25;;
32399;SDS011;45045;45.440;9.178;2023-07-24T00:14:05;15.95;;;10.95;;
32399;SDS011;45045;45.440;9.178;2023-07-24T00:16:31;17.63;;;10.30;;
32399;SDS011;45045;45.440;9.178;2023-07-24T00:18:57;16.10;;;10.82;;
32399;SDS011;45045;45.440;9.178;2023-07-24T00:21:23;16.20;;;10.95;;
32399;SDS011;45045;45.440;9.178;2023-07-24T00:23:48;17.33;;;10.50;;
32399;SDS011;45045;45.440;9.178;2023-07-24T00:26:14;17.13;;;10.50;;
32399;SDS011;45045;45.440;9.178;2023-07-24T00:28:39;19.10;;;11.50;;
32399;SDS011;45045;45.440;9.178;2023-07-24T00:31:05;16.75;;;10.13;;
32399;SDS011;45045;45.440;9.178;2023-07-24T00:33:30;18.02;;;10.48;;
32399;SDS011;45045;45.440;9.178;2023-07-24T00:35:56;17.40;;;11.02;;
32399;SDS011;45045;45.440;9.178;2023-07-24T00:38:22;16.63;;;10.43;;
32399;SDS011;45045;45.440;9.178;2023-07-24T00:40:48;17.77;;;10.80;;
32399;SDS011;45045;45.440;9.178;2023-07-24T00:43:15;17.70;;;10.98;;
32399;SDS011;45045;45.440;9.178;2023-07-24T00:45:41;16.20;;;10.43;;
32399;SDS011;45045;45.440;9.178;2023-07-24T00:48:07;16.00;;;11.00;;
32399;SDS011;45045;45.440;9.178;2023-07-24T00:50:32;18.42;;;11.07;;
32399;SDS011;45045;45.440;9.178;2023-07-24T00:52:58;17.27;;;10.43;;
32399;SDS011;45045;45.440;9.178;2023-07-24T00:55:24;15.73;;;9.75;;
32399;SDS011;45045;45.440;9.178;2023-07-24T00:57:50;18.70;;;11.52;;
32399;SDS011;45045;45.440;9.178;2023-07-24T01:00:16;17.45;;;10.73;;
32399;SDS011;45045;45.440;9.178;2023-07-24T01:02:42;18.23;;;11.00;;
32399;SDS011;45045;45.440;9.178;2023-07-24T01:05:09;15.93;;;11.07;;
32399;SDS011;45045;45.440;9.178;2023-07-24T01:07:37;15.98;;;10.48;;
32399;SDS011;45045;45.440;9.178;2023-07-24T01:10:03;16.27;;;10.20;;
32399;SDS011;45045;45.440;9.178;2023-07-24T01:15:06;16.55;;;10.35;;
32399;SDS011;45045;45.440;9.178;2023-07-24T01:17:54;18.10;;;10.70;;
32399;SDS011;45045;45.440;9.178;2023-07-24T01:20:24;17.88;;;11.02;;
32399;SDS011;45045;45.440;9.178;2023-07-24T01:23:20;18.15;;;10.55;;
32399;SDS011;45045;45.440;9.178;2023-07-24T01:28:16;14.63;;;10.07;;
32399;SDS011;45045;45.440;9.178;2023-07-24T01:30:42;14.82;;;10.02;;
32399;SDS011;45045;45.440;9.178;2023-07-24T01:33:08;16.60;;;10.77;;
32399;SDS011;45045;45.440;9.178;2023-07-24T01:35:33;15.43;;;10.57;;
32399;SDS011;45045;45.440;9.178;2023-07-24T01:37:59;15.75;;;10.23;;
32399;SDS011;45045;45.440;9.178;2023-07-24T01:40:26;17.50;;;10.68;;
32399;SDS011;45045;45.440;9.178;2023-07-24T01:42:51;17.67;;;10.05;;
32399;SDS011;45045;45.440;9.178;2023-07-24T01:45:17;15.65;;;10.25;;
32399;SDS011;45045;45.440;9.178;2023-07-24T01:47:43;15.35;;;10.43;;
32399;SDS011;45045;45.440;9.178;2023-07-24T01:50:08;18.13;;;10.68;;
32399;SDS011;45045;45.440;9.178;2023-07-24T01:52:34;18.35;;;11.18;;
32399;SDS011;45045;45.440;9.178;2023-07-24T01:55:00;19.10;;;11.25;;
32399;SDS011;45045;45.440;9.178;2023-07-24T01:57:25;15.15;;;10.93;;
32399;SDS011;45045;45.440;9.178;2023-07-24T01:59:51;17.33;;;10.63;;
32399;SDS011;45045;45.440;9.178;2023-07-24T02:02:17;19.83;;;12.05;;
32399;SDS011;45045;45.440;9.178;2023-07-24T02:04:42;19.73;;;12.40;;
32399;SDS011;45045;45.440;9.178;2023-07-24T02:07:08;17.58;;;11.95;;
32399;SDS011;45045;45.440;9.178;2023-07-24T02:09:34;19.40;;;12.07;;
32399;SDS011;45045;45.440;9.178;2023-07-24T02:11:59;16.75;;;11.85;;
32399;SDS011;45045;45.440;9.178;2023-07-24T02:14:27;22.55;;;12.90;;
32399;SDS011;45045;45.440;9.178;2023-07-24T02:16:53;18.75;;;12.40;;
32399;SDS011;45045;45.440;9.178;2023-07-24T02:19:18;21.15;;;11.85;;
32399;SDS011;45045;45.440;9.178;2023-07-24T02:21:44;18.35;;;12.15;;
32399;SDS011;45045;45.440;9.178;2023-07-24T02:24:09;18.05;;;12.07;;
32399;SDS011;45045;45.440;9.178;2023-07-24T02:26:35;18.27;;;12.75;;
32399;SDS011;45045;45.440;9.178;2023-07-24T02:29:01;17.13;;;11.65;;
32399;SDS011;45045;45.440;9.178;2023-07-24T02:31:26;18.13;;;11.85;;
32399;SDS011;45045;45.440;9.178;2023-07-24T02:33:52;17.63;;;10.90;;
32399;SDS011;45045;45.440;9.178;2023-07-24T02:36:18;17.00;;;12.38;;
32399;SDS011;45045;45.440;9.178;2023-07-24T02:38:43;18.70;;;11.18;;
32399;SDS011;45045;45.440;9.178;2023-07-24T02:41:09;18.42;;;11.50;;
32399;SDS011;45045;45.440;9.178;2023-07-24T02:43:34;17.15;;;11.75;;
32399;SDS011;45045;45.440;9.178;2023-07-24T02:46:00;19.48;;;11.73;;
32399;SDS011;45045;45.440;9.178;2023-07-24T02:48:27;17.83;;;10.95;;
32399;SDS011;45045;45.440;9.178;2023-07-24T02:50:53;16.42;;;11.18;;
32399;SDS011;45045;45.440;9.178;2023-07-24T02:53:18;20.35;;;11.57;;
32399;SDS011;45045;45.440;9.178;2023-07-24T02:55:44;17.40;;;11.90;;
32399;SDS011;45045;45.440;9.178;2023-07-24T02:58:13;14.55;;;9.93;;
32399;SDS011;45045;45.440;9.178;2023-07-24T03:00:39;16.33;;;11.90;;
32399;SDS011;45045;45.440;9.178;2023-07-24T03:03:05;15.82;;;10.70;;
32399;SDS011;45045;45.440;9.178;2023-07-24T03:05:31;16.15;;;11.77;;
32399;SDS011;45045;45.440;9.178;2023-07-24T03:07:59;15.65;;;11.00;;
32399;SDS011;45045;45.440;9.178;2023-07-24T03:10:25;17.65;;;11.50;;
32399;SDS011;45045;45.440;9.178;2023-07-24T03:12:51;16.85;;;10.88;;
32399;SDS011;45045;45.440;9.178;2023-07-24T03:15:16;16.80;;;11.00;;
32399;SDS011;45045;45.440;9.178;2023-07-24T03:17:42;15.43;;;10.55;;
32399;SDS011;45045;45.440;9.178;2023-07-24T03:20:17;15.68;;;10.50;;
32399;SDS011;45045;45.440;9.178;2023-07-24T03:22:44;15.25;;;11.52;;
32399;SDS011;45045;45.440;9.178;2023-07-24T03:25:10;16.20;;;11.50;;
32399;SDS011;45045;45.440;9.178;2023-07-24T03:27:36;18.67;;;11.10;;
32399;SDS011;45045;45.440;9.178;2023-07-24T03:30:02;15.85;;;11.15;;
32399;SDS011;45045;45.440;9.178;2023-07-24T03:32:28;17.83;;;11.73;;
32399;SDS011;45045;45.440;9.178;2023-07-24T03:34:54;16.33;;;11.75;;
32399;SDS011;45045;45.440;9.178;2023-07-24T03:37:20;17.25;;;11.88;;
32399;SDS011;45045;45.440;9.178;2023-07-24T03:39:45;18.50;;;11.68;;
32399;SDS011;45045;45.440;9.178;2023-07-24T03:42:11;17.05;;;11.50;;
32399;SDS011;45045;45.440;9.178;2023-07-24T03:44:40;18.73;;;11.23;;
32399;SDS011;45045;45.440;9.178;2023-07-24T03:47:05;14.63;;;11.13;;
32399;SDS011;45045;45.440;9.178;2023-07-24T03:49:31;17.23;;;11.48;;
32399;SDS011;45045;45.440;9.178;2023-07-24T03:51:57;18.23;;;11.65;;
32399;SDS011;45045;45.440;9.178;2023-07-24T03:54:22;17.23;;;11.70;;
32399;SDS011;45045;45.440;9.178;2023-07-24T03:56:48;20.10;;;12.00;;
32399;SDS011;45045;45.440;9.178;2023-07-24T03:59:14;17.98;;;11.48;;
32399;SDS011;45045;45.440;9.178;2023-07-24T04:01:39;19.48;;;11.20;;
32399;SDS011;45045;45.440;9.178;2023-07-24T04:04:05;15.85;;;11.13;;
32399;SDS011;45045;45.440;9.178;2023-07-24T04:06:31;17.40;;;11.40;;
32399;SDS011;45045;45.440;9.178;2023-07-24T04:08:56;15.82;;;10.95;;
32399;SDS011;45045;45.440;9.178;2023-07-24T04:11:22;16.30;;;11.38;;
32399;SDS011;45045;45.440;9.178;2023-07-24T04:13:47;17.95;;;11.57;;
32399;SDS011;45045;45.440;9.178;2023-07-24T04:16:13;15.85;;;10.55;;
32399;SDS011;45045;45.440;9.178;2023-07-24T04:18:39;15.52;;;11.20;;
32399;SDS011;45045;45.440;9.178;2023-07-24T04:21:04;17.35;;;11.27;;
32399;SDS011;45045;45.440;9.178;2023-07-24T04:23:30;18.98;;;11.77;;
32399;SDS011;45045;45.440;9.178;2023-07-24T04:25:55;17.27;;;11.57;;
32399;SDS011;45045;45.440;9.178;2023-07-24T04:28:21;16.38;;;11.13;;
32399;SDS011;45045;45.440;9.178;2023-07-24T04:30:47;18.48;;;11.55;;
32399;SDS011;45045;45.440;9.178;2023-07-24T04:33:12;17.73;;;11.95;;
32399;SDS011;45045;45.440;9.178;2023-07-24T04:35:38;17.25;;;11.40;;
32399;SDS011;45045;45.440;9.178;2023-07-24T04:38:03;16.35;;;11.20;;
32399;SDS011;45045;45.440;9.178;2023-07-24T04:40:29;17.25;;;11.18;;
32399;SDS011;45045;45.440;9.178;2023-07-24T04:42:55;14.98;;;11.70;;
32399;SDS011;45045;45.440;9.178;2023-07-24T04:45:20;16.15;;;10.73;;
32399;SDS011;45045;45.440;9.178;2023-07-24T04:47:46;16.08;;;10.90;;
32399;SDS011;45045;45.440;9.178;2023-07-24T04:50:11;17.23;;;10.43;;
32399;SDS011;45045;45.440;9.178;2023-07-24T04:52:37;15.68;;;11.00;;
32399;SDS011;45045;45.440;9.178;2023-07-24T04:55:03;16.10;;;10.90;;
32399;SDS011;45045;45.440;9.178;2023-07-24T04:57:29;19.08;;;11.48;;
32399;SDS011;45045;45.440;9.178;2023-07-24T04:59:54;18.88;;;11.27;;
32399;SDS011;45045;45.440;9.178;2023-07-24T05:02:20;16.80;;;11.85;;
32399;SDS011;45045;45.440;9.178;2023-07-24T05:04:45;17.52;;;11.63;;
32399;SDS011;45045;45.440;9.178;2023-07-24T05:07:11;18.13;;;13.15;;
32399;SDS011;45045;45.440;9.178;2023-07-24T05:09:36;17.35;;;11.55;;
32399;SDS011;45045;45.440;9.178;2023-07-24T05:12:02;18.42;;;12.63;;
32399;SDS011;45045;45.440;9.178;2023-07-24T05:14:28;23.33;;;12.43;;
32399;SDS011;45045;45.440;9.178;2023-07-24T05:16:54;21.02;;;13.15;;
32399;SDS011;45045;45.440;9.178;2023-07-24T05:19:19;22.13;;;12.75;;
32399;SDS011;45045;45.440;9.178;2023-07-24T05:21:45;19.10;;;12.23;;
32399;SDS011;45045;45.440;9.178;2023-07-24T05:24:10;20.60;;;13.10;;
32399;SDS011;45045;45.440;9.178;2023-07-24T05:26:36;20.65;;;11.77;;
32399;SDS011;45045;45.440;9.178;2023-07-24T05:29:01;20.10;;;12.55;;
32399;SDS011;45045;45.440;9.178;2023-07-24T05:31:27;20.77;;;13.15;;
32399;SDS011;45045;45.440;9.178;2023-07-24T05:33:53;19.67;;;12.60;;
32399;SDS011;45045;45.440;9.178;2023-07-24T05:36:18;20.13;;;12.10;;
32399;SDS011;45045;45.440;9.178;2023-07-24T05:38:44;18.33;;;11.27;;
32399;SDS011;45045;45.440;9.178;2023-07-24T05:41:09;20.60;;;12.40;;
32399;SDS011;45045;45.440;9.178;2023-07-24T05:43:35;16.73;;;11.60;;
32399;SDS011;45045;45.440;9.178;2023-07-24T05:46:00;20.92;;;11.63;;
32399;SDS011;45045;45.440;9.178;2023-07-24T05:48:26;20.92;;;11.88;;
32399;SDS011;45045;45.440;9.178;2023-07-24T05:50:52;22.92;;;12.18;;
32399;SDS011;45045;45.440;9.178;2023-07-24T05:53:18;21.10;;;11.88;;
32399;SDS011;45045;45.440;9.178;2023-07-24T05:55:43;19.30;;;12.23;;
32399;SDS011;45045;45.440;9.178;2023-07-24T05:58:09;19.70;;;13.68;;
32399;SDS011;45045;45.440;9.178;2023-07-24T06:00:35;20.17;;;12.40;;
32399;SDS011;45045;45.440;9.178;2023-07-24T06:03:04;25.50;;;14.35;;
32399;SDS011;45045;45.440;9.178;2023-07-24T06:05:29;21.42;;;13.77;;
32399;SDS011;45045;45.440;9.178;2023-07-24T06:07:55;19.92;;;13.40;;
32399;SDS011;45045;45.440;9.178;2023-07-24T06:10:20;18.95;;;12.43;;
32399;SDS011;45045;45.440;9.178;2023-07-24T06:12:46;19.10;;;12.55;;
32399;SDS011;45045;45.440;9.178;2023-07-24T06:15:12;21.70;;;12.40;;
32399;SDS011;45045;45.440;9.178;2023-07-24T06:17:38;23.08;;;13.32;;
32399;SDS011;45045;45.440;9.178;2023-07-24T06:20:04;24.73;;;14.10;;
32399;SDS011;45045;45.440;9.178;2023-07-24T06:22:31;21.60;;;13.27;;
32399;SDS011;45045;45.440;9.178;2023-07-24T06:24:56;22.23;;;12.88;;
32399;SDS011;45045;45.440;9.178;2023-07-24T06:27:22;20.73;;;13.48;;
32399;SDS011;45045;45.440;9.178;2023-07-24T06:29:48;19.70;;;13.10;;
32399;SDS011;45045;45.440;9.178;2023-07-24T06:32:13;22.90;;;13.07;;
32399;SDS011;45045;45.440;9.178;2023-07-24T06:34:39;19.30;;;13.23;;
32399;SDS011;45045;45.440;9.178;2023-07-24T06:37:04;19.35;;;14.00;;
32399;SDS011;45045;45.440;9.178;2023-07-24T06:39:30;22.33;;;13.80;;
32399;SDS011;45045;45.440;9.178;2023-07-24T06:41:58;22.98;;;13.90;;
32399;SDS011;45045;45.440;9.178;2023-07-24T06:44:23;23.77;;;13.82;;
32399;SDS011;45045;45.440;9.178;2023-07-24T06:46:49;22.02;;;14.52;;
32399;SDS011;45045;45.440;9.178;2023-07-24T06:49:15;22.95;;;14.23;;
32399;SDS011;45045;45.440;9.178;2023-07-24T06:51:40;22.30;;;13.82;;
32399;SDS011;45045;45.440;9.178;2023-07-24T06:54:06;25.25;;;14.90;;
32399;SDS011;45045;45.440;9.178;2023-07-24T06:56:32;23.10;;;14.15;;
32399;SDS011;45045;45.440;9.178;2023-07-24T06:58:57;24.50;;;14.05;;
32399;SDS011;45045;45.440;9.178;2023-07-24T07:01:23;20.55;;;14.50;;
32399;SDS011;45045;45.440;9.178;2023-07-24T07:03:49;22.98;;;14.77;;
32399;SDS011;45045;45.440;9.178;2023-07-24T07:06:15;21.17;;;14.60;;
32399;SDS011;45045;45.440;9.178;2023-07-24T07:08:41;20.70;;;14.38;;
32399;SDS011;45045;45.440;9.178;2023-07-24T07:11:06;20.00;;;13.38;;
32399;SDS011;45045;45.440;9.178;2023-07-24T07:13:32;22.40;;;14.25;;
32399;SDS011;45045;45.440;9.178;2023-07-24T07:15:57;21.50;;;14.02;;
32399;SDS011;45045;45.440;9.178;2023-07-24T07:18:23;21.98;;;14.20;;
32399;SDS011;45045;45.440;9.178;2023-07-24T07:20:50;18.70;;;14.07;;
32399;SDS011;45045;45.440;9.178;2023-07-24T07:23:16;18.50;;;12.95;;
32399;SDS011;45045;45.440;9.178;2023-07-24T07:25:42;21.17;;;13.10;;
32399;SDS011;45045;45.440;9.178;2023-07-24T07:28:10;23.05;;;13.63;;
32399;SDS011;45045;45.440;9.178;2023-07-24T07:30:36;19.17;;;14.07;;
32399;SDS011;45045;45.440;9.178;2023-07-24T07:33:02;20.35;;;13.63;;
32399;SDS011;45045;45.440;9.178;2023-07-24T07:35:27;21.15;;;13.95;;
32399;SDS011;45045;45.440;9.178;2023-07-24T07:37:53;20.95;;;12.80;;
32399;SDS011;45045;45.440;9.178;2023-07-24T07:40:19;19.52;;;13.70;;
32399;SDS011;45045;45.440;9.178;2023-07-24T07:42:44;18.92;;;13.48;;
32399;SDS011;45045;45.440;9.178;2023-07-24T07:45:10;19.75;;;13.55;;
32399;SDS011;45045;45.440;9.178;2023-07-24T07:47:36;25.23;;;14.68;;
32399;SDS011;45045;45.440;9.178;2023-07-24T07:50:02;20.42;;;13.38;;
32399;SDS011;45045;45.440;9.178;2023-07-24T07:52:28;17.20;;;12.95;;
32399;SDS011;45045;45.440;9.178;2023-07-24T07:54:53;20.00;;;13.48;;
32399;SDS011;45045;45.440;9.178;2023-07-24T07:57:19;19.30;;;13.30;;
32399;SDS011;45045;45.440;9.178;2023-07-24T07:59:44;20.45;;;13.30;;
32399;SDS011;45045;45.440;9.178;2023-07-24T08:02:10;18.25;;;12.40;;
32399;SDS011;45045;45.440;9.178;2023-07-24T08:04:36;19.40;;;12.43;;
32399;SDS011;45045;45.440;9.178;2023-07-24T08:07:01;23.98;;;13.73;;
32399;SDS011;45045;45.440;9.178;2023-07-24T08:09:27;23.23;;;13.27;;
32399;SDS011;45045;45.440;9.178;2023-07-24T08:11:53;21.30;;;13.00;;
32399;SDS011;45045;45.440;9.178;2023-07-24T08:14:19;19.80;;;13.10;;
32399;SDS011;45045;45.440;9.178;2023-07-24T08:16:44;19.27;;;13.63;;
32399;SDS011;45045;45.440;9.178;2023-07-24T08:19:13;20.27;;;13.57;;
32399;SDS011;45045;45.440;9.178;2023-07-24T08:21:39;18.58;;;11.95;;
32399;SDS011;45045;45.440;9.178;2023-07-24T08:24:05;18.77;;;11.48;;
32399;SDS011;45045;45.440;9.178;2023-07-24T08:26:31;18.10;;;11.75;;
32399;SDS011;45045;45.440;9.178;2023-07-24T08:28:56;21.17;;;12.40;;
32399;SDS011;45045;45.440;9.178;2023-07-24T08:31:22;17.90;;;12.32;;
32399;SDS011;45045;45.440;9.178;2023-07-24T08:33:48;19.63;;;11.77;;
32399;SDS011;45045;45.440;9.178;2023-07-24T08:36:13;19.50;;;11.70;;
32399;SDS011;45045;45.440;9.178;2023-07-24T08:38:39;18.83;;;11.60;;
32399;SDS011;45045;45.440;9.178;2023-07-24T08:41:07;20.17;;;11.65;;
32399;SDS011;45045;45.440;9.178;2023-07-24T08:43:37;21.70;;;12.13;;
32399;SDS011;45045;45.440;9.178;2023-07-24T08:46:04;19.23;;;11.82;;
32399;SDS011;45045;45.440;9.178;2023-07-24T08:48:31;19.13;;;12.25;;
32399;SDS011;45045;45.440;9.178;2023-07-24T08:51:01;20.13;;;12.65;;
32399;SDS011;45045;45.440;9.178;2023-07-24T08:53:28;20.10;;;12.45;;
32399;SDS011;45045;45.440;9.178;2023-07-24T08:55:55;19.27;;;11.98;;
32399;SDS011;45045;45.440;9.178;2023-07-24T08:58:21;17.02;;;11.50;;
32399;SDS011;45045;45.440;9.178;2023-07-24T09:00:47;19.83;;;11.60;;
32399;SDS011;45045;45.440;9.178;2023-07-24T09:03:13;20.67;;;12.63;;
32399;SDS011;45045;45.440;9.178;2023-07-24T09:05:39;19.20;;;12.00;;
32399;SDS011;45045;45.440;9.178;2023-07-24T09:08:04;18.50;;;12.25;;
32399;SDS011;45045;45.440;9.178;2023-07-24T09:10:30;19.10;;;11.18;;
32399;SDS011;45045;45.440;9.178;2023-07-24T09:12:56;16.83;;;11.25;;
32399;SDS011;45045;45.440;9.178;2023-07-24T09:15:22;20.75;;;11.98;;
32399;SDS011;45045;45.440;9.178;2023-07-24T09:17:51;19.23;;;12.15;;
32399;SDS011;45045;45.440;9.178;2023-07-24T09:20:18;18.83;;;12.13;;
32399;SDS011;45045;45.440;9.178;2023-07-24T09:22:48;20.08;;;12.57;;
32399;SDS011;45045;45.440;9.178;2023-07-24T09:25:15;22.45;;;12.45;;
32399;SDS011;45045;45.440;9.178;2023-07-24T09:27:40;18.33;;;11.70;;
32399;SDS011;45045;45.440;9.178;2023-07-24T09:30:15;19.30;;;12.52;;
32399;SDS011;45045;45.440;9.178;2023-07-24T09:32:42;17.33;;;12.10;;
32399;SDS011;45045;45.440;9.178;2023-07-24T09:35:17;23.52;;;12.85;;
32399;SDS011;45045;45.440;9.178;2023-07-24T09:37:43;18.02;;;12.60;;
32399;SDS011;45045;45.440;9.178;2023-07-24T09:40:09;20.08;;;12.95;;
32399;SDS011;45045;45.440;9.178;2023-07-24T09:42:37;21.65;;;14.15;;
32399;SDS011;45045;45.440;9.178;2023-07-24T09:45:05;21.05;;;12.90;;
32399;SDS011;45045;45.440;9.178;2023-07-24T09:47:33;18.70;;;12.55;;
32399;SDS011;45045;45.440;9.178;2023-07-24T09:49:59;22.85;;;13.65;;
32399;SDS011;45045;45.440;9.178;2023-07-24T09:52:27;21.33;;;14.13;;
32399;SDS011;45045;45.440;9.178;2023-07-24T09:57:24;22.05;;;14.73;;
32399;SDS011;45045;45.440;9.178;2023-07-24T09:59:52;22.17;;;13.23;;
32399;SDS011;45045;45.440;9.178;2023-07-24T10:02:19;18.05;;;12.98;;
32399;SDS011;45045;45.440;9.178;2023-07-24T10:04:46;21.13;;;13.80;;
32399;SDS011;45045;45.440;9.178;2023-07-24T10:07:13;20.17;;;13.25;;
32399;SDS011;45045;45.440;9.178;2023-07-24T10:09:39;21.67;;;13.98;;
32399;SDS011;45045;45.440;9.178;2023-07-24T10:12:05;20.65;;;12.70;;
32399;SDS011;45045;45.440;9.178;2023-07-24T10:14:31;20.30;;;13.07;;
32399;SDS011;45045;45.440;9.178;2023-07-24T10:16:57;22.58;;;14.32;;
32399;SDS011;45045;45.440;9.178;2023-07-24T10:19:22;19.38;;;13.50;;
32399;SDS011;45045;45.440;9.178;2023-07-24T10:21:48;19.00;;;12.82;;
32399;SDS011;45045;45.440;9.178;2023-07-24T10:24:15;19.05;;;13.70;;
32399;SDS011;45045;45.440;9.178;2023-07-24T10:26:41;21.38;;;13.20;;
32399;SDS011;45045;45.440;9.178;2023-07-24T10:29:08;19.58;;;13.65;;
32399;SDS011;45045;45.440;9.178;2023-07-24T10:31:35;20.23;;;12.52;;
32399;SDS011;45045;45.440;9.178;2023-07-24T10:34:07;18.58;;;12.60;;
32399;SDS011;45045;45.440;9.178;2023-07-24T10:36:33;20.92;;;12.90;;
32399;SDS011;45045;45.440;9.178;2023-07-24T10:39:00;18.42;;;12.45;;
32399;SDS011;45045;45.440;9.178;2023-07-24T10:41:36;18.63;;;12.18;;
32399;SDS011;45045;45.440;9.178;2023-07-24T10:44:02;20.77;;;13.02;;
32399;SDS011;45045;45.440;9.178;2023-07-24T10:46:39;18.88;;;12.88;;
32399;SDS011;45045;45.440;9.178;2023-07-24T10:49:07;21.30;;;12.95;;
32399;SDS011;45045;45.440;9.178;2023-07-24T10:51:33;17.75;;;12.05;;
32399;SDS011;45045;45.440;9.178;2023-07-24T10:54:02;18.75;;;11.82;;
32399;SDS011;45045;45.440;9.178;2023-07-24T10:56:28;19.02;;;11.95;;
32399;SDS011;45045;45.440;9.178;2023-07-24T10:58:54;18.23;;;11.75;;
32399;SDS011;45045;45.440;9.178;2023-07-24T11:01:20;15.55;;;11.35;;
32399;SDS011;45045;45.440;9.178;2023-07-24T11:03:46;16.30;;;11.40;;
32399;SDS011;45045;45.440;9.178;2023-07-24T11:06:15;15.90;;;11.32;;
32399;SDS011;45045;45.440;9.178;2023-07-24T11:08:42;18.87;;;11.10;;
32399;SDS011;45045;45.440;9.178;2023-07-24T11:11:17;17.27;;;10.90;;
32399;SDS011;45045;45.440;9.178;2023-07-24T11:13:43;19.90;;;11.73;;
32399;SDS011;45045;45.440;9.178;2023-07-24T11:16:08;17.35;;;11.32;;
32399;SDS011;45045;45.440;9.178;2023-07-24T11:18:43;15.65;;;10.75;;
32399;SDS011;45045;45.440;9.178;2023-07-24T11:21:11;18.70;;;11.07;;
32399;SDS011;45045;45.440;9.178;2023-07-24T11:23:37;20.58;;;11.57;;
32399;SDS011;45045;45.440;9.178;2023-07-24T11:26:09;18.58;;;11.30;;
32399;SDS011;45045;45.440;9.178;2023-07-24T11:28:41;16.55;;;10.30;;
32399;SDS011;45045;45.440;9.178;2023-07-24T11:31:07;15.70;;;10.68;;
32399;SDS011;45045;45.440;9.178;2023-07-24T11:33:33;16.23;;;11.02;;
32399;SDS011;45045;45.440;9.178;2023-07-24T11:35:59;20.95;;;11.13;;
32399;SDS011;45045;45.440;9.178;2023-07-24T11:38:25;16.02;;;11.00;;
32399;SDS011;45045;45.440;9.178;2023-07-24T11:40:50;16.33;;;11.35;;
32399;SDS011;45045;45.440;9.178;2023-07-24T11:43:20;19.95;;;11.10;;
32399;SDS011;45045;45.440;9.178;2023-07-24T11:45:47;21.42;;;11.75;;
32399;SDS011;45045;45.440;9.178;2023-07-24T11:48:17;17.63;;;11.98;;
32399;SDS011;45045;45.440;9.178;2023-07-24T11:50:46;19.33;;;12.48;;
32399;SDS011;45045;45.440;9.178;2023-07-24T11:53:26;20.20;;;12.32;;
32399;SDS011;45045;45.440;9.178;2023-07-24T11:55:54;18.73;;;11.68;;
32399;SDS011;45045;45.440;9.178;2023-07-24T11:58:27;18.52;;;12.38;;
32399;SDS011;45045;45.440;9.178;2023-07-24T12:00:54;17.45;;;11.70;;
32399;SDS011;45045;45.440;9.178;2023-07-24T12:03:21;18.27;;;8.90;;
32399;SDS011;45045;45.440;9.178;2023-07-24T12:05:47;14.05;;;7.22;;
32399;SDS011;45045;45.440;9.178;2023-07-24T12:08:13;15.13;;;7.65;;
32399;SDS011;45045;45.440;9.178;2023-07-24T12:10:39;15.90;;;7.78;;
32399;SDS011;45045;45.440;9.178;2023-07-24T12:13:06;18.35;;;8.50;;
32399;SDS011;45045;45.440;9.178;2023-07-24T12:15:32;12.95;;;7.25;;
32399;SDS011;45045;45.440;9.178;2023-07-24T12:18:02;11.07;;;5.18;;
32399;SDS011;45045;45.440;9.178;2023-07-24T12:20:28;8.35;;;4.65;;
32399;SDS011;45045;45.440;9.178;2023-07-24T12:22:55;11.35;;;4.85;;
32399;SDS011;45045;45.440;9.178;2023-07-24T12:25:21;7.82;;;4.32;;
32399;SDS011;45045;45.440;9.178;2023-07-24T12:27:47;9.20;;;4.00;;
32399;SDS011;45045;45.440;9.178;2023-07-24T12:30:13;8.20;;;4.10;;
32399;SDS011;45045;45.440;9.178;2023-07-24T12:32:39;8.68;;;3.95;;
32399;SDS011;45045;45.440;9.178;2023-07-24T12:35:06;5.80;;;2.83;;
32399;SDS011;45045;45.440;9.178;2023-07-24T12:37:33;6.60;;;2.95;;
32399;SDS011;45045;45.440;9.178;2023-07-24T12:39:58;6.88;;;3.35;;
32399;SDS011;45045;45.440;9.178;2023-07-24T12:42:24;6.38;;;3.50;;
32399;SDS011;45045;45.440;9.178;2023-07-24T12:44:50;7.18;;;3.22;;
32399;SDS011;45045;45.440;9.178;2023-07-24T12:47:16;5.65;;;3.28;;
32399;SDS011;45045;45.440;9.178;2023-07-24T12:49:42;7.22;;;3.67;;
32399;SDS011;45045;45.440;9.178;2023-07-24T12:52:07;6.25;;;3.15;;
32399;SDS011;45045;45.440;9.178;2023-07-24T12:54:33;6.82;;;3.85;;
32399;SDS011;45045;45.440;9.178;2023-07-24T12:57:00;6.28;;;4.03;;
32399;SDS011;45045;45.440;9.178;2023-07-24T12:59:27;7.95;;;4.60;;
32399;SDS011;45045;45.440;9.178;2023-07-24T13:01:53;8.18;;;5.18;;
32399;SDS011;45045;45.440;9.178;2023-07-24T13:04:19;10.00;;;5.97;;
32399;SDS011;45045;45.440;9.178;2023-07-24T13:06:45;9.85;;;5.55;;
32399;SDS011;45045;45.440;9.178;2023-07-24T13:09:10;9.98;;;6.15;;
32399;SDS011;45045;45.440;9.178;2023-07-24T13:11:36;10.75;;;6.50;;
32399;SDS011;45045;45.440;9.178;2023-07-24T13:14:02;11.05;;;6.03;;
32399;SDS011;45045;45.440;9.178;2023-07-24T13:16:27;10.13;;;6.65;;
32399;SDS011;45045;45.440;9.178;2023-07-24T13:18:53;12.73;;;6.63;;
32399;SDS011;45045;45.440;9.178;2023-07-24T13:21:19;11.73;;;6.28;;
32399;SDS011;45045;45.440;9.178;2023-07-24T13:23:44;13.32;;;6.43;;
32399;SDS011;45045;45.440;9.178;2023-07-24T13:26:11;9.68;;;6.45;;
32399;SDS011;45045;45.440;9.178;2023-07-24T13:28:38;11.25;;;6.93;;
32399;SDS011;45045;45.440;9.178;2023-07-24T13:31:10;11.25;;;6.97;;
32399;SDS011;45045;45.440;9.178;2023-07-24T13:33:40;11.43;;;6.80;;
32399;SDS011;45045;45.440;9.178;2023-07-24T13:36:06;11.25;;;7.15;;
32399;SDS011;45045;45.440;9.178;2023-07-24T13:38:31;15.27;;;8.23;;
32399;SDS011;45045;45.440;9.178;2023-07-24T13:40:57;12.30;;;7.95;;
32399;SDS011;45045;45.440;9.178;2023-07-24T13:43:23;11.88;;;7.95;;
32399;SDS011;45045;45.440;9.178;2023-07-24T13:45:49;11.85;;;8.07;;
32399;SDS011;45045;45.440;9.178;2023-07-24T13:48:14;13.85;;;8.38;;
32399;SDS011;45045;45.440;9.178;2023-07-24T13:50:40;16.85;;;7.95;;
32399;SDS011;45045;45.440;9.178;2023-07-24T13:53:05;12.77;;;8.32;;
32399;SDS011;45045;45.440;9.178;2023-07-24T13:55:31;13.50;;;8.18;;
32399;SDS011;45045;45.440;9.178;2023-07-24T13:57:57;13.73;;;7.75;;
32399;SDS011;45045;45.440;9.178;2023-07-24T14:00:22;14.60;;;7.45;;
32399;SDS011;45045;45.440;9.178;2023-07-24T14:02:48;14.13;;;8.00;;
32399;SDS011;45045;45.440;9.178;2023-07-24T14:05:13;12.43;;;7.68;;
32399;SDS011;45045;45.440;9.178;2023-07-24T14:07:40;13.45;;;8.05;;
32399;SDS011;45045;45.440;9.178;2023-07-24T14:10:06;12.40;;;7.78;;
32399;SDS011;45045;45.440;9.178;2023-07-24T14:12:32;11.20;;;6.65;;
32399;SDS011;45045;45.440;9.178;2023-07-24T14:14:58;13.00;;;7.55;;
32399;SDS011;45045;45.440;9.178;2023-07-24T14:17:24;14.13;;;7.93;;
32399;SDS011;45045;45.440;9.178;2023-07-24T14:19:49;14.48;;;7.63;;
32399;SDS011;45045;45.440;9.178;2023-07-24T14:22:15;13.38;;;7.63;;
32399;SDS011;45045;45.440;9.178;2023-07-24T14:24:40;11.50;;;7.55;;
32399;SDS011;45045;45.440;9.178;2023-07-24T14:27:06;12.32;;;7.72;;